Peterstown, WV (24963)

3:11 PM EDT on May 06, 2015 (GMT -0400)
ADAIR RIDGE ROAD | | Change Station
CLOSE
Current Station
Personal Weather Station
Location: Ballard, WV
Elevation: 2053 ft
Nearby Weather Stations

Elev 2053 ft 37.50 °N, 80.78 °W | Updated 12 seconds ago

Overcast
Overcast
82.3 °F
Feels Like 82 °F
N
1.8
Wind Variable Wind from SE
Gusts 1.8 mph

Today
High -- | Low -- °F
--% Chance of Precip.
Yesterday
High -- | Low -- °F
Precip. -- in
6:22 AM 8:17 PM
Waning Gibbous, 93% visible
Pressure 30.24 in
Visibility 10.0 miles
Clouds Scattered Clouds 6000 ft
Scattered Clouds 8000 ft
Overcast 9000 ft
Heat Index 82 °F
Dew Point 59 °F
Humidity 45%
Rainfall 0.00 in
Snow Depth Not available.
UV 3 out of 12
Pollen 9.60 out of 12
Air Quality Not available.
Flu Activity Sporadic
METAR KPSK 061855Z AUTO 16003KT 10SM SCT060 SCT080 OVC090 24/13 A3024 RMK AO2 T02400131

More Conditions Fewer Conditions

Pressure 30.24 in
Visibility 10.0 miles
Clouds Scattered Clouds 6000 ft
Scattered Clouds 8000 ft
Overcast 9000 ft
Heat Index 82 °F
Dew Point 59 °F
Humidity 45%
Rainfall 0.00 in
Snow Depth Not available.
UV 3 out of 12
Pollen 9.60 out of 12
Air Quality Not available.
Flu Activity Sporadic
METAR KPSK 061855Z AUTO 16003KT 10SM SCT060 SCT080 OVC090 24/13 A3024 RMK AO2 T02400131

More Conditions Fewer Conditions

10-Day Weather Forecast

Almanac

Astronomy

May. 06, 2015 Rise Set
Actual Time
Civil Twilight
Nautical Twilight
Astronomical Twilight
Moon
Length of Visible Light
Length of Day
Tomorrow will be .
, % of the Moon is Illuminated

Today's Extremes

State Highs State Lows

Community

WunderPhotos

Upload Photos

1,818,994 photos uploaded!

WunderBlogs® & News

Nearby

Air Quality

  Air Quality AQ Index Pollutant
Not available.

Snow Depth

Station Depth Elevation

Earthquake Activity

City Distance Mag. Time & Date
Minimum magnitude displayed is 2.5.

Coastal Water Temperatures

Place Temperature

Stations

Nearby Weather Stations

Station Location Temp. Windchill Dew Point Humidity Wind Precip. Elev Updated Type